sensor_id;sensor_type;location;lat;lon;timestamp;P1;durP1;ratioP1;P2;durP2;ratioP2
56455;SDS011;42354;53.218;6.564;2023-08-06T00:02:17;42.25;;;19.13;;
56455;SDS011;42354;53.218;6.564;2023-08-06T00:04:43;41.05;;;20.60;;
56455;SDS011;42354;53.218;6.564;2023-08-06T00:07:08;45.90;;;24.70;;
56455;SDS011;42354;53.218;6.564;2023-08-06T00:09:33;35.10;;;17.83;;
56455;SDS011;42354;53.218;6.564;2023-08-06T00:11:59;31.05;;;17.13;;
56455;SDS011;42354;53.218;6.564;2023-08-06T00:14:24;30.67;;;16.67;;
56455;SDS011;42354;53.218;6.564;2023-08-06T00:16:49;50.10;;;26.67;;
56455;SDS011;42354;53.218;6.564;2023-08-06T00:19:15;41.05;;;20.58;;
56455;SDS011;42354;53.218;6.564;2023-08-06T00:21:40;49.33;;;25.58;;
56455;SDS011;42354;53.218;6.564;2023-08-06T00:24:05;45.35;;;21.15;;
56455;SDS011;42354;53.218;6.564;2023-08-06T00:26:31;43.55;;;22.05;;
56455;SDS011;42354;53.218;6.564;2023-08-06T00:28:56;45.88;;;23.25;;
56455;SDS011;42354;53.218;6.564;2023-08-06T00:31:22;47.75;;;24.00;;
56455;SDS011;42354;53.218;6.564;2023-08-06T00:33:47;38.78;;;19.83;;
56455;SDS011;42354;53.218;6.564;2023-08-06T00:36:13;46.40;;;23.08;;
56455;SDS011;42354;53.218;6.564;2023-08-06T00:38:38;31.70;;;18.42;;
56455;SDS011;42354;53.218;6.564;2023-08-06T00:41:04;38.78;;;21.48;;
56455;SDS011;42354;53.218;6.564;2023-08-06T00:43:29;41.58;;;22.58;;
56455;SDS011;42354;53.218;6.564;2023-08-06T00:45:55;37.25;;;19.48;;
56455;SDS011;42354;53.218;6.564;2023-08-06T00:48:21;25.50;;;14.38;;
56455;SDS011;42354;53.218;6.564;2023-08-06T00:50:46;22.65;;;13.32;;
56455;SDS011;42354;53.218;6.564;2023-08-06T00:53:12;21.63;;;14.27;;
56455;SDS011;42354;53.218;6.564;2023-08-06T00:55:38;21.40;;;13.45;;
56455;SDS011;42354;53.218;6.564;2023-08-06T00:58:03;24.10;;;14.00;;
56455;SDS011;42354;53.218;6.564;2023-08-06T01:00:29;40.42;;;21.88;;
56455;SDS011;42354;53.218;6.564;2023-08-06T01:02:55;47.50;;;24.20;;
56455;SDS011;42354;53.218;6.564;2023-08-06T01:05:21;46.72;;;25.38;;
56455;SDS011;42354;53.218;6.564;2023-08-06T01:15:55;34.72;;;20.25;;
56455;SDS011;42354;53.218;6.564;2023-08-06T01:18:22;57.47;;;24.02;;
56455;SDS011;42354;53.218;6.564;2023-08-06T01:20:47;44.47;;;23.52;;
56455;SDS011;42354;53.218;6.564;2023-08-06T01:23:14;51.13;;;23.98;;
56455;SDS011;42354;53.218;6.564;2023-08-06T01:25:43;47.70;;;24.63;;
56455;SDS011;42354;53.218;6.564;2023-08-06T01:28:18;45.22;;;24.92;;
56455;SDS011;42354;53.218;6.564;2023-08-06T01:31:04;39.10;;;20.80;;
56455;SDS011;42354;53.218;6.564;2023-08-06T01:33:32;48.05;;;23.85;;
56455;SDS011;42354;53.218;6.564;2023-08-06T01:36:01;38.30;;;20.15;;
56455;SDS011;42354;53.218;6.564;2023-08-06T01:38:28;53.45;;;26.70;;
56455;SDS011;42354;53.218;6.564;2023-08-06T01:40:54;59.85;;;28.60;;
56455;SDS011;42354;53.218;6.564;2023-08-06T01:43:19;61.63;;;29.70;;
56455;SDS011;42354;53.218;6.564;2023-08-06T01:45:45;41.90;;;22.23;;
56455;SDS011;42354;53.218;6.564;2023-08-06T01:48:10;27.00;;;16.48;;
56455;SDS011;42354;53.218;6.564;2023-08-06T01:50:36;30.90;;;18.15;;
56455;SDS011;42354;53.218;6.564;2023-08-06T01:53:01;40.47;;;21.95;;
56455;SDS011;42354;53.218;6.564;2023-08-06T01:55:26;39.50;;;20.98;;
56455;SDS011;42354;53.218;6.564;2023-08-06T01:57:53;43.50;;;23.98;;
56455;SDS011;42354;53.218;6.564;2023-08-06T02:00:19;51.13;;;25.08;;
56455;SDS011;42354;53.218;6.564;2023-08-06T02:02:44;52.35;;;26.90;;
56455;SDS011;42354;53.218;6.564;2023-08-06T02:05:10;51.88;;;27.92;;
56455;SDS011;42354;53.218;6.564;2023-08-06T02:07:35;54.55;;;27.25;;
56455;SDS011;42354;53.218;6.564;2023-08-06T02:10:00;51.85;;;26.58;;
56455;SDS011;42354;53.218;6.564;2023-08-06T02:12:26;44.30;;;23.35;;
56455;SDS011;42354;53.218;6.564;2023-08-06T02:14:51;34.78;;;21.23;;
56455;SDS011;42354;53.218;6.564;2023-08-06T02:17:16;38.63;;;20.30;;
56455;SDS011;42354;53.218;6.564;2023-08-06T02:19:42;32.35;;;17.88;;
56455;SDS011;42354;53.218;6.564;2023-08-06T02:22:08;27.80;;;16.55;;
56455;SDS011;42354;53.218;6.564;2023-08-06T02:24:33;27.30;;;16.63;;
56455;SDS011;42354;53.218;6.564;2023-08-06T02:26:59;30.90;;;16.63;;
56455;SDS011;42354;53.218;6.564;2023-08-06T02:29:24;27.30;;;16.75;;
56455;SDS011;42354;53.218;6.564;2023-08-06T02:31:49;27.13;;;16.67;;
56455;SDS011;42354;53.218;6.564;2023-08-06T02:34:15;30.15;;;18.08;;
56455;SDS011;42354;53.218;6.564;2023-08-06T02:36:40;38.83;;;23.20;;
56455;SDS011;42354;53.218;6.564;2023-08-06T02:39:06;52.38;;;23.83;;
56455;SDS011;42354;53.218;6.564;2023-08-06T02:41:31;51.05;;;26.50;;
56455;SDS011;42354;53.218;6.564;2023-08-06T02:43:57;55.58;;;28.67;;
56455;SDS011;42354;53.218;6.564;2023-08-06T02:46:22;37.30;;;21.48;;
56455;SDS011;42354;53.218;6.564;2023-08-06T02:48:48;34.75;;;21.10;;
56455;SDS011;42354;53.218;6.564;2023-08-06T02:51:13;35.40;;;20.80;;
56455;SDS011;42354;53.218;6.564;2023-08-06T02:53:38;31.63;;;19.17;;
56455;SDS011;42354;53.218;6.564;2023-08-06T02:56:04;39.63;;;20.77;;
56455;SDS011;42354;53.218;6.564;2023-08-06T02:58:29;44.88;;;23.70;;
56455;SDS011;42354;53.218;6.564;2023-08-06T03:01:01;34.33;;;20.70;;
56455;SDS011;42354;53.218;6.564;2023-08-06T03:03:29;35.03;;;19.92;;
56455;SDS011;42354;53.218;6.564;2023-08-06T03:05:55;31.33;;;18.05;;
56455;SDS011;42354;53.218;6.564;2023-08-06T03:08:20;32.58;;;19.55;;
56455;SDS011;42354;53.218;6.564;2023-08-06T03:10:47;32.67;;;18.80;;
56455;SDS011;42354;53.218;6.564;2023-08-06T03:13:13;23.45;;;15.98;;
56455;SDS011;42354;53.218;6.564;2023-08-06T03:15:39;25.95;;;16.33;;
56455;SDS011;42354;53.218;6.564;2023-08-06T03:18:04;28.95;;;16.83;;
56455;SDS011;42354;53.218;6.564;2023-08-06T03:20:31;28.65;;;17.25;;
56455;SDS011;42354;53.218;6.564;2023-08-06T03:22:57;27.67;;;16.42;;
56455;SDS011;42354;53.218;6.564;2023-08-06T03:25:23;26.42;;;16.33;;
56455;SDS011;42354;53.218;6.564;2023-08-06T03:27:48;27.30;;;16.40;;
56455;SDS011;42354;53.218;6.564;2023-08-06T03:30:13;29.70;;;17.27;;
56455;SDS011;42354;53.218;6.564;2023-08-06T03:32:39;26.33;;;15.80;;
56455;SDS011;42354;53.218;6.564;2023-08-06T03:35:04;26.58;;;16.77;;
56455;SDS011;42354;53.218;6.564;2023-08-06T03:37:30;29.40;;;16.67;;
56455;SDS011;42354;53.218;6.564;2023-08-06T03:39:55;23.48;;;15.30;;
56455;SDS011;42354;53.218;6.564;2023-08-06T03:42:21;27.65;;;16.38;;
56455;SDS011;42354;53.218;6.564;2023-08-06T03:44:46;26.52;;;16.42;;
56455;SDS011;42354;53.218;6.564;2023-08-06T03:47:12;32.38;;;18.10;;
56455;SDS011;42354;53.218;6.564;2023-08-06T03:49:38;31.73;;;17.25;;
56455;SDS011;42354;53.218;6.564;2023-08-06T03:52:03;33.58;;;18.50;;
56455;SDS011;42354;53.218;6.564;2023-08-06T03:54:30;27.95;;;16.63;;
56455;SDS011;42354;53.218;6.564;2023-08-06T03:56:55;28.80;;;17.75;;
56455;SDS011;42354;53.218;6.564;2023-08-06T03:59:20;29.10;;;16.25;;
56455;SDS011;42354;53.218;6.564;2023-08-06T04:01:46;27.55;;;15.40;;
56455;SDS011;42354;53.218;6.564;2023-08-06T04:04:11;23.52;;;15.25;;
56455;SDS011;42354;53.218;6.564;2023-08-06T04:06:37;25.10;;;15.55;;
56455;SDS011;42354;53.218;6.564;2023-08-06T04:09:02;20.48;;;13.70;;
56455;SDS011;42354;53.218;6.564;2023-08-06T04:11:27;25.15;;;14.40;;
56455;SDS011;42354;53.218;6.564;2023-08-06T04:13:53;24.20;;;15.07;;
56455;SDS011;42354;53.218;6.564;2023-08-06T04:16:20;22.48;;;14.15;;
56455;SDS011;42354;53.218;6.564;2023-08-06T04:18:45;23.35;;;14.88;;
56455;SDS011;42354;53.218;6.564;2023-08-06T04:21:11;23.73;;;14.10;;
56455;SDS011;42354;53.218;6.564;2023-08-06T04:23:36;25.92;;;14.23;;
56455;SDS011;42354;53.218;6.564;2023-08-06T04:26:02;25.48;;;14.52;;
56455;SDS011;42354;53.218;6.564;2023-08-06T04:28:27;23.33;;;13.65;;
56455;SDS011;42354;53.218;6.564;2023-08-06T04:30:53;22.80;;;12.77;;
56455;SDS011;42354;53.218;6.564;2023-08-06T04:33:19;21.67;;;13.73;;
56455;SDS011;42354;53.218;6.564;2023-08-06T04:35:45;23.38;;;13.73;;
56455;SDS011;42354;53.218;6.564;2023-08-06T04:38:10;21.05;;;12.85;;
56455;SDS011;42354;53.218;6.564;2023-08-06T04:40:36;24.27;;;13.70;;
56455;SDS011;42354;53.218;6.564;2023-08-06T04:43:01;22.33;;;13.43;;
56455;SDS011;42354;53.218;6.564;2023-08-06T04:45:27;26.02;;;13.05;;
56455;SDS011;42354;53.218;6.564;2023-08-06T04:47:52;20.08;;;12.43;;
56455;SDS011;42354;53.218;6.564;2023-08-06T04:50:18;24.63;;;13.35;;
56455;SDS011;42354;53.218;6.564;2023-08-06T04:52:44;22.75;;;13.38;;
56455;SDS011;42354;53.218;6.564;2023-08-06T04:55:09;20.50;;;13.55;;
56455;SDS011;42354;53.218;6.564;2023-08-06T04:57:35;18.48;;;12.55;;
56455;SDS011;42354;53.218;6.564;2023-08-06T05:00:00;19.27;;;13.43;;
56455;SDS011;42354;53.218;6.564;2023-08-06T05:02:26;22.10;;;13.00;;
56455;SDS011;42354;53.218;6.564;2023-08-06T05:04:51;20.88;;;13.40;;
56455;SDS011;42354;53.218;6.564;2023-08-06T05:07:17;24.95;;;13.60;;
56455;SDS011;42354;53.218;6.564;2023-08-06T05:09:42;19.45;;;13.90;;
56455;SDS011;42354;53.218;6.564;2023-08-06T05:12:07;22.75;;;13.30;;
56455;SDS011;42354;53.218;6.564;2023-08-06T05:14:33;20.67;;;12.75;;
56455;SDS011;42354;53.218;6.564;2023-08-06T05:16:58;22.23;;;13.18;;
56455;SDS011;42354;53.218;6.564;2023-08-06T05:19:23;20.42;;;13.13;;
56455;SDS011;42354;53.218;6.564;2023-08-06T05:21:49;19.30;;;12.75;;
56455;SDS011;42354;53.218;6.564;2023-08-06T05:24:14;21.20;;;13.32;;
56455;SDS011;42354;53.218;6.564;2023-08-06T05:26:40;21.58;;;14.32;;
56455;SDS011;42354;53.218;6.564;2023-08-06T05:29:05;23.63;;;13.95;;
56455;SDS011;42354;53.218;6.564;2023-08-06T05:31:30;22.10;;;14.05;;
56455;SDS011;42354;53.218;6.564;2023-08-06T05:33:55;22.05;;;14.20;;
56455;SDS011;42354;53.218;6.564;2023-08-06T05:36:21;21.58;;;13.95;;
56455;SDS011;42354;53.218;6.564;2023-08-06T05:38:46;23.25;;;14.85;;
56455;SDS011;42354;53.218;6.564;2023-08-06T05:41:12;19.92;;;13.10;;
56455;SDS011;42354;53.218;6.564;2023-08-06T05:43:37;21.75;;;13.13;;
56455;SDS011;42354;53.218;6.564;2023-08-06T05:46:03;21.98;;;13.00;;
56455;SDS011;42354;53.218;6.564;2023-08-06T05:48:29;19.85;;;13.32;;
56455;SDS011;42354;53.218;6.564;2023-08-06T05:50:54;19.83;;;13.05;;
56455;SDS011;42354;53.218;6.564;2023-08-06T05:53:20;20.25;;;12.38;;
56455;SDS011;42354;53.218;6.564;2023-08-06T05:55:45;17.77;;;12.38;;
56455;SDS011;42354;53.218;6.564;2023-08-06T05:58:10;20.15;;;13.45;;
56455;SDS011;42354;53.218;6.564;2023-08-06T06:00:36;18.50;;;11.50;;
56455;SDS011;42354;53.218;6.564;2023-08-06T06:03:01;18.48;;;12.02;;
56455;SDS011;42354;53.218;6.564;2023-08-06T06:05:28;17.00;;;11.43;;
56455;SDS011;42354;53.218;6.564;2023-08-06T06:07:53;17.90;;;11.90;;
56455;SDS011;42354;53.218;6.564;2023-08-06T06:10:19;16.50;;;10.98;;
56455;SDS011;42354;53.218;6.564;2023-08-06T06:12:44;16.80;;;11.73;;
56455;SDS011;42354;53.218;6.564;2023-08-06T06:15:09;18.55;;;10.80;;
56455;SDS011;42354;53.218;6.564;2023-08-06T06:17:35;20.35;;;10.75;;
56455;SDS011;42354;53.218;6.564;2023-08-06T06:20:01;16.27;;;10.70;;
56455;SDS011;42354;53.218;6.564;2023-08-06T06:22:28;15.75;;;10.63;;
56455;SDS011;42354;53.218;6.564;2023-08-06T06:24:54;13.27;;;9.25;;
56455;SDS011;42354;53.218;6.564;2023-08-06T06:27:19;14.82;;;9.63;;
56455;SDS011;42354;53.218;6.564;2023-08-06T06:29:44;13.30;;;8.65;;
56455;SDS011;42354;53.218;6.564;2023-08-06T06:32:10;13.68;;;8.55;;
56455;SDS011;42354;53.218;6.564;2023-08-06T06:34:35;12.38;;;8.18;;
56455;SDS011;42354;53.218;6.564;2023-08-06T06:37:00;14.48;;;8.48;;
56455;SDS011;42354;53.218;6.564;2023-08-06T06:39:26;11.52;;;8.07;;
56455;SDS011;42354;53.218;6.564;2023-08-06T06:41:51;11.93;;;7.75;;
56455;SDS011;42354;53.218;6.564;2023-08-06T06:44:17;12.52;;;7.68;;
56455;SDS011;42354;53.218;6.564;2023-08-06T06:46:42;10.90;;;6.90;;
56455;SDS011;42354;53.218;6.564;2023-08-06T06:49:07;10.90;;;7.43;;
56455;SDS011;42354;53.218;6.564;2023-08-06T06:51:33;9.27;;;7.00;;
56455;SDS011;42354;53.218;6.564;2023-08-06T06:53:58;12.48;;;7.40;;
56455;SDS011;42354;53.218;6.564;2023-08-06T06:56:24;13.32;;;7.78;;
56455;SDS011;42354;53.218;6.564;2023-08-06T06:58:49;9.70;;;6.60;;
56455;SDS011;42354;53.218;6.564;2023-08-06T07:01:14;12.18;;;7.43;;
56455;SDS011;42354;53.218;6.564;2023-08-06T07:03:40;9.50;;;6.70;;
56455;SDS011;42354;53.218;6.564;2023-08-06T07:06:06;7.80;;;6.15;;
56455;SDS011;42354;53.218;6.564;2023-08-06T07:08:32;9.55;;;6.63;;
56455;SDS011;42354;53.218;6.564;2023-08-06T07:11:04;8.75;;;6.22;;
56455;SDS011;42354;53.218;6.564;2023-08-06T07:13:30;9.05;;;5.85;;
56455;SDS011;42354;53.218;6.564;2023-08-06T07:15:56;7.78;;;6.03;;
56455;SDS011;42354;53.218;6.564;2023-08-06T07:18:22;10.57;;;6.28;;
56455;SDS011;42354;53.218;6.564;2023-08-06T07:20:51;9.25;;;5.72;;
56455;SDS011;42354;53.218;6.564;2023-08-06T07:23:20;8.38;;;5.88;;
56455;SDS011;42354;53.218;6.564;2023-08-06T07:25:47;7.63;;;5.57;;
56455;SDS011;42354;53.218;6.564;2023-08-06T07:28:15;9.63;;;5.57;;
56455;SDS011;42354;53.218;6.564;2023-08-06T07:30:42;8.07;;;5.60;;
56455;SDS011;42354;53.218;6.564;2023-08-06T07:33:08;8.20;;;5.88;;
56455;SDS011;42354;53.218;6.564;2023-08-06T07:35:34;8.55;;;6.07;;
56455;SDS011;42354;53.218;6.564;2023-08-06T07:37:59;7.05;;;4.95;;
56455;SDS011;42354;53.218;6.564;2023-08-06T07:40:25;7.18;;;5.20;;
56455;SDS011;42354;53.218;6.564;2023-08-06T07:42:50;6.95;;;4.38;;
56455;SDS011;42354;53.218;6.564;2023-08-06T07:45:15;7.72;;;5.20;;
56455;SDS011;42354;53.218;6.564;2023-08-06T07:47:41;5.95;;;4.22;;
56455;SDS011;42354;53.218;6.564;2023-08-06T07:50:08;5.63;;;4.63;;
56455;SDS011;42354;53.218;6.564;2023-08-06T07:52:34;7.15;;;4.38;;
56455;SDS011;42354;53.218;6.564;2023-08-06T07:54:59;5.57;;;5.00;;
56455;SDS011;42354;53.218;6.564;2023-08-06T07:57:26;8.00;;;4.80;;
56455;SDS011;42354;53.218;6.564;2023-08-06T07:59:52;7.57;;;4.50;;
56455;SDS011;42354;53.218;6.564;2023-08-06T08:02:18;7.13;;;4.63;;
56455;SDS011;42354;53.218;6.564;2023-08-06T08:04:44;6.85;;;4.97;;
56455;SDS011;42354;53.218;6.564;2023-08-06T08:07:12;7.15;;;4.45;;
56455;SDS011;42354;53.218;6.564;2023-08-06T08:09:37;5.28;;;4.25;;
56455;SDS011;42354;53.218;6.564;2023-08-06T08:12:02;7.38;;;4.32;;
56455;SDS011;42354;53.218;6.564;2023-08-06T08:14:28;8.93;;;4.13;;
56455;SDS011;42354;53.218;6.564;2023-08-06T08:16:54;5.32;;;4.60;;
56455;SDS011;42354;53.218;6.564;2023-08-06T08:19:19;6.55;;;5.03;;
56455;SDS011;42354;53.218;6.564;2023-08-06T08:21:46;5.55;;;4.07;;
56455;SDS011;42354;53.218;6.564;2023-08-06T08:24:11;5.22;;;4.00;;
56455;SDS011;42354;53.218;6.564;2023-08-06T08:26:36;5.82;;;3.80;;
56455;SDS011;42354;53.218;6.564;2023-08-06T08:29:02;5.70;;;3.72;;
56455;SDS011;42354;53.218;6.564;2023-08-06T08:31:27;5.45;;;3.50;;
56455;SDS011;42354;53.218;6.564;2023-08-06T08:33:53;5.32;;;3.50;;
56455;SDS011;42354;53.218;6.564;2023-08-06T08:36:19;3.92;;;2.65;;
56455;SDS011;42354;53.218;6.564;2023-08-06T08:38:44;3.08;;;2.70;;
56455;SDS011;42354;53.218;6.564;2023-08-06T08:41:10;4.13;;;2.58;;
56455;SDS011;42354;53.218;6.564;2023-08-06T08:43:36;3.50;;;2.50;;
56455;SDS011;42354;53.218;6.564;2023-08-06T08:46:02;6.38;;;3.25;;
56455;SDS011;42354;53.218;6.564;2023-08-06T08:48:30;4.13;;;2.17;;
56455;SDS011;42354;53.218;6.564;2023-08-06T08:53:27;5.88;;;2.63;;
56455;SDS011;42354;53.218;6.564;2023-08-06T08:55:53;2.72;;;1.85;;
56455;SDS011;42354;53.218;6.564;2023-08-06T08:58:20;2.22;;;2.03;;
56455;SDS011;42354;53.218;6.564;2023-08-06T09:00:46;4.95;;;2.15;;
56455;SDS011;42354;53.218;6.564;2023-08-06T09:03:13;4.07;;;2.38;;
56455;SDS011;42354;53.218;6.564;2023-08-06T09:05:40;2.72;;;2.28;;
56455;SDS011;42354;53.218;6.564;2023-08-06T09:08:15;7.70;;;3.15;;
56455;SDS011;42354;53.218;6.564;2023-08-06T09:10:44;3.67;;;2.80;;
56455;SDS011;42354;53.218;6.564;2023-08-06T09:13:13;4.68;;;2.50;;
56455;SDS011;42354;53.218;6.564;2023-08-06T09:15:38;3.35;;;2.63;;
56455;SDS011;42354;53.218;6.564;2023-08-06T09:18:10;4.32;;;2.55;;
56455;SDS011;42354;53.218;6.564;2023-08-06T09:20:37;3.13;;;2.05;;
56455;SDS011;42354;53.218;6.564;2023-08-06T09:23:10;3.47;;;2.67;;
56455;SDS011;42354;53.218;6.564;2023-08-06T09:25:39;4.22;;;2.38;;
56455;SDS011;42354;53.218;6.564;2023-08-06T09:28:05;2.78;;;2.00;;
56455;SDS011;42354;53.218;6.564;2023-08-06T09:30:31;3.22;;;2.08;;
56455;SDS011;42354;53.218;6.564;2023-08-06T09:32:58;2.63;;;2.03;;
56455;SDS011;42354;53.218;6.564;2023-08-06T09:35:24;3.08;;;1.80;;
56455;SDS011;42354;53.218;6.564;2023-08-06T09:37:50;2.65;;;1.40;;
56455;SDS011;42354;53.218;6.564;2023-08-06T09:40:25;3.00;;;1.45;;
56455;SDS011;42354;53.218;6.564;2023-08-06T09:42:54;1.95;;;1.58;;
56455;SDS011;42354;53.218;6.564;2023-08-06T09:45:21;3.50;;;1.70;;
56455;SDS011;42354;53.218;6.564;2023-08-06T09:47:48;3.13;;;1.45;;
56455;SDS011;42354;53.218;6.564;2023-08-06T09:50:18;2.95;;;1.85;;
56455;SDS011;42354;53.218;6.564;2023-08-06T09:52:44;2.08;;;1.75;;
56455;SDS011;42354;53.218;6.564;2023-08-06T09:55:11;6.03;;;1.63;;
56455;SDS011;42354;53.218;6.564;2023-08-06T09:57:37;2.42;;;1.70;;
56455;SDS011;42354;53.218;6.564;2023-08-06T10:00:04;1.73;;;1.40;;
56455;SDS011;42354;53.218;6.564;2023-08-06T10:02:30;3.28;;;1.35;;
56455;SDS011;42354;53.218;6.564;2023-08-06T10:04:58;3.05;;;1.60;;
56455;SDS011;42354;53.218;6.564;2023-08-06T10:07:24;1.77;;;1.30;;
56455;SDS011;42354;53.218;6.564;2023-08-06T10:09:49;4.80;;;1.58;;
56455;SDS011;42354;53.218;6.564;2023-08-06T10:12:16;2.50;;;1.85;;
56455;SDS011;42354;53.218;6.564;2023-08-06T10:14:44;3.60;;;1.48;;
56455;SDS011;42354;53.218;6.564;2023-08-06T10:17:12;3.63;;;1.73;;
56455;SDS011;42354;53.218;6.564;2023-08-06T10:19:37;1.95;;;1.30;;
56455;SDS011;42354;53.218;6.564;2023-08-06T10:22:16;14.02;;;1.90;;
56455;SDS011;42354;53.218;6.564;2023-08-06T10:24:52;2.80;;;1.40;;
56455;SDS011;42354;53.218;6.564;2023-08-06T10:27:22;2.25;;;1.50;;
56455;SDS011;42354;53.218;6.564;2023-08-06T10:32:58;1.98;;;1.38;;
56455;SDS011;42354;53.218;6.564;2023-08-06T10:35:41;2.42;;;1.63;;
56455;SDS011;42354;53.218;6.564;2023-08-06T10:40:41;3.05;;;1.45;;
56455;SDS011;42354;53.218;6.564;2023-08-06T10:43:28;2.72;;;1.67;;
56455;SDS011;42354;53.218;6.564;2023-08-06T10:46:03;2.22;;;1.98;;
56455;SDS011;42354;53.218;6.564;2023-08-06T10:48:35;3.50;;;1.60;;
56455;SDS011;42354;53.218;6.564;2023-08-06T10:51:08;2.20;;;1.60;;
56455;SDS011;42354;53.218;6.564;2023-08-06T10:53:35;3.28;;;1.55;;
56455;SDS011;42354;53.218;6.564;2023-08-06T10:56:01;3.08;;;1.45;;
56455;SDS011;42354;53.218;6.564;2023-08-06T10:58:31;2.33;;;1.45;;
56455;SDS011;42354;53.218;6.564;2023-08-06T11:00:58;2.05;;;1.63;;
56455;SDS011;42354;53.218;6.564;2023-08-06T11:03:24;1.50;;;1.20;;
56455;SDS011;42354;53.218;6.564;2023-08-06T11:05:49;2.40;;;1.48;;
56455;SDS011;42354;53.218;6.564;2023-08-06T11:08:28;2.47;;;1.23;;
56455;SDS011;42354;53.218;6.564;2023-08-06T11:10:57;2.30;;;1.30;;
56455;SDS011;42354;53.218;6.564;2023-08-06T11:13:34;1.52;;;1.23;;
56455;SDS011;42354;53.218;6.564;2023-08-06T11:15:59;3.05;;;1.60;;
56455;SDS011;42354;53.218;6.564;2023-08-06T11:18:25;4.88;;;1.27;;
56455;SDS011;42354;53.218;6.564;2023-08-06T11:20:50;1.85;;;1.27;;
56455;SDS011;42354;53.218;6.564;2023-08-06T11:23:16;2.33;;;1.33;;
56455;SDS011;42354;53.218;6.564;2023-08-06T11:25:44;4.18;;;1.30;;
56455;SDS011;42354;53.218;6.564;2023-08-06T11:28:11;1.45;;;1.30;;
56455;SDS011;42354;53.218;6.564;2023-08-06T11:30:37;3.75;;;1.40;;
56455;SDS011;42354;53.218;6.564;2023-08-06T11:33:03;2.28;;;1.50;;
56455;SDS011;42354;53.218;6.564;2023-08-06T11:35:28;4.72;;;1.50;;
56455;SDS011;42354;53.218;6.564;2023-08-06T11:37:54;3.47;;;1.60;;
56455;SDS011;42354;53.218;6.564;2023-08-06T11:40:19;2.65;;;1.20;;
56455;SDS011;42354;53.218;6.564;2023-08-06T11:42:46;1.73;;;1.45;;
56455;SDS011;42354;53.218;6.564;2023-08-06T11:45:12;2.60;;;1.50;;
56455;SDS011;42354;53.218;6.564;2023-08-06T11:47:38;2.33;;;1.60;;
56455;SDS011;42354;53.218;6.564;2023-08-06T11:50:07;3.42;;;1.30;;
56455;SDS011;42354;53.218;6.564;2023-08-06T11:52:33;2.47;;;1.50;;
56455;SDS011;42354;53.218;6.564;2023-08-06T11:55:02;2.45;;;1.50;;
56455;SDS011;42354;53.218;6.564;2023-08-06T11:57:33;3.08;;;1.40;;
56455;SDS011;42354;53.218;6.564;2023-08-06T12:00:09;3.22;;;1.77;;
56455;SDS011;42354;53.218;6.564;2023-08-06T12:02:38;1.67;;;1.30;;
56455;SDS011;42354;53.218;6.564;2023-08-06T12:07:36;2.30;;;1.60;;
56455;SDS011;42354;53.218;6.564;2023-08-06T12:10:03;3.15;;;1.60;;
56455;SDS011;42354;53.218;6.564;2023-08-06T12:12:30;2.88;;;1.30;;
56455;SDS011;42354;53.218;6.564;2023-08-06T12:14:55;2.38;;;1.40;;
56455;SDS011;42354;53.218;6.564;2023-08-06T12:17:21;3.50;;;1.52;;
56455;SDS011;42354;53.218;6.564;2023-08-06T12:19:48;2.92;;;1.42;;
56455;SDS011;42354;53.218;6.564;2023-08-06T12:22:14;2.45;;;1.50;;
56455;SDS011;42354;53.218;6.564;2023-08-06T12:24:42;2.92;;;1.30;;
56455;SDS011;42354;53.218;6.564;2023-08-06T12:27:08;1.65;;;1.40;;
56455;SDS011;42354;53.218;6.564;2023-08-06T12:29:35;9.40;;;1.55;;
56455;SDS011;42354;53.218;6.564;2023-08-06T12:32:01;3.78;;;1.38;;
56455;SDS011;42354;53.218;6.564;2023-08-06T12:34:27;2.58;;;1.40;;
56455;SDS011;42354;53.218;6.564;2023-08-06T12:36:52;2.10;;;1.50;;
56455;SDS011;42354;53.218;6.564;2023-08-06T12:39:18;3.70;;;1.40;;
56455;SDS011;42354;53.218;6.564;2023-08-06T12:41:43;2.78;;;1.50;;
56455;SDS011;42354;53.218;6.564;2023-08-06T12:44:11;2.35;;;1.30;;
56455;SDS011;42354;53.218;6.564;2023-08-06T12:46:37;3.67;;;1.52;;
56455;SDS011;42354;53.218;6.564;2023-08-06T12:49:02;3.33;;;1.50;;
56455;SDS011;42354;53.218;6.564;2023-08-06T12:51:28;3.05;;;1.55;;
56455;SDS011;42354;53.218;6.564;2023-08-06T12:53:53;2.33;;;1.60;;
56455;SDS011;42354;53.218;6.564;2023-08-06T12:56:19;3.35;;;1.58;;
56455;SDS011;42354;53.218;6.564;2023-08-06T12:58:44;2.45;;;1.30;;
56455;SDS011;42354;53.218;6.564;2023-08-06T13:01:09;2.42;;;1.40;;
56455;SDS011;42354;53.218;6.564;2023-08-06T13:03:35;2.65;;;1.38;;
56455;SDS011;42354;53.218;6.564;2023-08-06T13:06:00;4.60;;;1.65;;
56455;SDS011;42354;53.218;6.564;2023-08-06T13:08:26;2.33;;;1.45;;
56455;SDS011;42354;53.218;6.564;2023-08-06T13:10:51;2.72;;;1.40;;
56455;SDS011;42354;53.218;6.564;2023-08-06T13:13:17;1.92;;;1.40;;
56455;SDS011;42354;53.218;6.564;2023-08-06T13:15:42;3.35;;;1.73;;
56455;SDS011;42354;53.218;6.564;2023-08-06T13:18:08;1.90;;;1.50;;
56455;SDS011;42354;53.218;6.564;2023-08-06T13:20:33;3.67;;;1.67;;
56455;SDS011;42354;53.218;6.564;2023-08-06T13:22:59;5.72;;;1.90;;
56455;SDS011;42354;53.218;6.564;2023-08-06T13:25:26;2.05;;;1.60;;
56455;SDS011;42354;53.218;6.564;2023-08-06T13:27:53;3.05;;;1.65;;
56455;SDS011;42354;53.218;6.564;2023-08-06T13:30:19;3.65;;;1.80;;
56455;SDS011;42354;53.218;6.564;2023-08-06T13:32:45;1.95;;;1.50;;
56455;SDS011;42354;53.218;6.564;2023-08-06T13:35:11;3.28;;;1.60;;
56455;SDS011;42354;53.218;6.564;2023-08-06T13:37:36;1.88;;;1.40;;
56455;SDS011;42354;53.218;6.564;2023-08-06T13:40:01;3.08;;;1.67;;
56455;SDS011;42354;53.218;6.564;2023-08-06T13:42:27;3.03;;;1.77;;
56455;SDS011;42354;53.218;6.564;2023-08-06T13:44:53;2.08;;;1.40;;
56455;SDS011;42354;53.218;6.564;2023-08-06T13:47:24;3.78;;;1.65;;
56455;SDS011;42354;53.218;6.564;2023-08-06T13:49:50;2.95;;;1.60;;
56455;SDS011;42354;53.218;6.564;2023-08-06T13:52:15;3.58;;;1.50;;
56455;SDS011;42354;53.218;6.564;2023-08-06T13:54:41;3.38;;;1.52;;
56455;SDS011;42354;53.218;6.564;2023-08-06T13:57:06;3.10;;;1.60;;
56455;SDS011;42354;53.218;6.564;2023-08-06T13:59:32;3.17;;;1.40;;
56455;SDS011;42354;53.218;6.564;2023-08-06T14:01:57;2.47;;;1.40;;
56455;SDS011;42354;53.218;6.564;2023-08-06T14:04:24;2.30;;;1.40;;
56455;SDS011;42354;53.218;6.564;2023-08-06T14:06:50;2.72;;;1.20;;
56455;SDS011;42354;53.218;6.564;2023-08-06T14:09:15;4.13;;;1.33;;
56455;SDS011;42354;53.218;6.564;2023-08-06T14:11:43;2.42;;;1.20;;
56455;SDS011;42354;53.218;6.564;2023-08-06T14:14:09;3.95;;;1.30;;
56455;SDS011;42354;53.218;6.564;2023-08-06T14:16:36;1.88;;;1.55;;
56455;SDS011;42354;53.218;6.564;2023-08-06T14:19:02;2.03;;;1.30;;
56455;SDS011;42354;53.218;6.564;2023-08-06T14:21:27;2.13;;;1.40;;
56455;SDS011;42354;53.218;6.564;2023-08-06T14:23:53;1.90;;;1.40;;
56455;SDS011;42354;53.218;6.564;2023-08-06T14:26:18;2.15;;;1.35;;
56455;SDS011;42354;53.218;6.564;2023-08-06T14:28:44;2.17;;;1.20;;
56455;SDS011;42354;53.218;6.564;2023-08-06T14:31:09;2.15;;;1.33;;
56455;SDS011;42354;53.218;6.564;2023-08-06T14:33:35;1.50;;;1.25;;
56455;SDS011;42354;53.218;6.564;2023-08-06T14:36:00;1.95;;;1.30;;
56455;SDS011;42354;53.218;6.564;2023-08-06T14:38:26;1.80;;;1.23;;
56455;SDS011;42354;53.218;6.564;2023-08-06T14:40:52;1.42;;;1.15;;
56455;SDS011;42354;53.218;6.564;2023-08-06T14:43:17;1.95;;;1.15;;
56455;SDS011;42354;53.218;6.564;2023-08-06T14:45:44;4.20;;;1.17;;
56455;SDS011;42354;53.218;6.564;2023-08-06T14:48:13;2.60;;;1.48;;
56455;SDS011;42354;53.218;6.564;2023-08-06T14:50:38;1.85;;;1.42;;